sensor_id;sensor_type;location;lat;lon;timestamp;pressure;altitude;pressure_sealevel;temperature;humidity
65173;BME280;51758;52.218;5.172;2023-02-23T00:00:24;99167.69;;;7.69;100.00
65173;BME280;51758;52.218;5.172;2023-02-23T00:02:57;99177.66;;;7.59;100.00
65173;BME280;51758;52.218;5.172;2023-02-23T00:05:28;99039.16;;;6.72;100.00
65173;BME280;51758;52.218;5.172;2023-02-23T00:07:56;99187.84;;;7.53;100.00
65173;BME280;51758;52.218;5.172;2023-02-23T00:10:24;99179.81;;;7.48;100.00
65173;BME280;51758;52.218;5.172;2023-02-23T00:12:56;99181.88;;;7.60;100.00
65173;BME280;51758;52.218;5.172;2023-02-23T00:15:25;99175.25;;;7.50;100.00
65173;BME280;51758;52.218;5.172;2023-02-23T00:17:53;99181.03;;;7.52;100.00
65173;BME280;51758;52.218;5.172;2023-02-23T00:20:24;99177.66;;;7.45;100.00
65173;BME280;51758;52.218;5.172;2023-02-23T00:22:53;99178.63;;;7.51;100.00
65173;BME280;51758;52.218;5.172;2023-02-23T00:25:21;99174.25;;;7.51;100.00
65173;BME280;51758;52.218;5.172;2023-02-23T00:27:50;99173.66;;;7.56;100.00
65173;BME280;51758;52.218;5.172;2023-02-23T00:30:19;99166.47;;;7.58;100.00
65173;BME280;51758;52.218;5.172;2023-02-23T00:32:49;99170.06;;;7.57;100.00
65173;BME280;51758;52.218;5.172;2023-02-23T00:35:18;99168.88;;;7.46;100.00
65173;BME280;51758;52.218;5.172;2023-02-23T00:37:47;99167.66;;;7.55;100.00
65173;BME280;51758;52.218;5.172;2023-02-23T00:40:17;99170.66;;;7.52;100.00
65173;BME280;51758;52.218;5.172;2023-02-23T00:42:46;99159.28;;;7.53;100.00
65173;BME280;51758;52.218;5.172;2023-02-23T00:45:15;99159.50;;;7.59;100.00
65173;BME280;51758;52.218;5.172;2023-02-23T00:47:43;99160.06;;;7.61;100.00
65173;BME280;51758;52.218;5.172;2023-02-23T00:50:16;99148.09;;;7.46;100.00
65173;BME280;51758;52.218;5.172;2023-02-23T00:52:44;99156.88;;;7.59;100.00
65173;BME280;51758;52.218;5.172;2023-02-23T00:55:14;99154.69;;;7.55;100.00
65173;BME280;51758;52.218;5.172;2023-02-23T00:57:41;99155.47;;;7.63;100.00
65173;BME280;51758;52.218;5.172;2023-02-23T01:00:10;99168.84;;;7.53;100.00
65173;BME280;51758;52.218;5.172;2023-02-23T01:02:46;99164.28;;;7.55;100.00
65173;BME280;51758;52.218;5.172;2023-02-23T01:05:14;99152.28;;;7.61;100.00
65173;BME280;51758;52.218;5.172;2023-02-23T01:07:42;99158.09;;;7.69;100.00
65173;BME280;51758;52.218;5.172;2023-02-23T01:10:13;99162.66;;;7.54;100.00
65173;BME280;51758;52.218;5.172;2023-02-23T01:12:48;99115.31;;;7.39;100.00
65173;BME280;51758;52.218;5.172;2023-02-23T01:15:17;99153.66;;;7.50;100.00
65173;BME280;51758;52.218;5.172;2023-02-23T01:17:46;99163.06;;;7.58;100.00
65173;BME280;51758;52.218;5.172;2023-02-23T01:20:15;99139.28;;;7.41;100.00
65173;BME280;51758;52.218;5.172;2023-02-23T01:22:45;99023.44;;;6.80;100.00
65173;BME280;51758;52.218;5.172;2023-02-23T01:25:16;99160.66;;;7.63;100.00
65173;BME280;51758;52.218;5.172;2023-02-23T01:27:44;99148.88;;;7.53;100.00
65173;BME280;51758;52.218;5.172;2023-02-23T01:30:13;99151.88;;;7.77;100.00
65173;BME280;51758;52.218;5.172;2023-02-23T01:32:41;99150.69;;;7.79;100.00
65173;BME280;51758;52.218;5.172;2023-02-23T01:35:10;99138.50;;;7.80;100.00
65173;BME280;51758;52.218;5.172;2023-02-23T01:37:41;99165.28;;;7.67;100.00
65173;BME280;51758;52.218;5.172;2023-02-23T01:40:12;99158.88;;;7.57;100.00
65173;BME280;51758;52.218;5.172;2023-02-23T01:42:45;99179.06;;;7.54;100.00
65173;BME280;51758;52.218;5.172;2023-02-23T01:45:21;99181.84;;;7.53;100.00
65173;BME280;51758;52.218;5.172;2023-02-23T01:47:51;99175.88;;;7.59;100.00
65173;BME280;51758;52.218;5.172;2023-02-23T01:50:20;99183.25;;;7.55;100.00
65173;BME280;51758;52.218;5.172;2023-02-23T01:52:49;99183.84;;;7.58;100.00
65173;BME280;51758;52.218;5.172;2023-02-23T01:55:18;99181.66;;;7.68;100.00
65173;BME280;51758;52.218;5.172;2023-02-23T01:57:52;99180.44;;;7.50;100.00
65173;BME280;51758;52.218;5.172;2023-02-23T02:00:22;99194.06;;;7.59;100.00
65173;BME280;51758;52.218;5.172;2023-02-23T02:02:52;99189.44;;;7.54;100.00
65173;BME280;51758;52.218;5.172;2023-02-23T02:05:20;99192.44;;;7.58;100.00
65173;BME280;51758;52.218;5.172;2023-02-23T02:07:50;99157.88;;;7.51;100.00
65173;BME280;51758;52.218;5.172;2023-02-23T02:10:25;99186.66;;;7.76;100.00
65173;BME280;51758;52.218;5.172;2023-02-23T02:13:16;99195.03;;;7.65;100.00
65173;BME280;51758;52.218;5.172;2023-02-23T02:16:16;99194.84;;;7.60;100.00
65173;BME280;51758;52.218;5.172;2023-02-23T02:19:33;99201.63;;;7.61;100.00
65173;BME280;51758;52.218;5.172;2023-02-23T02:25:33;99205.44;;;7.65;100.00
65173;BME280;51758;52.218;5.172;2023-02-23T02:31:38;99217.19;;;7.61;100.00
65173;BME280;51758;52.218;5.172;2023-02-23T02:34:38;99221.00;;;7.51;100.00
65173;BME280;51758;52.218;5.172;2023-02-23T02:37:29;99223.97;;;7.48;100.00
65173;BME280;51758;52.218;5.172;2023-02-23T02:40:07;99177.56;;;7.12;100.00
65173;BME280;51758;52.218;5.172;2023-02-23T02:42:54;99228.34;;;7.35;100.00
65173;BME280;51758;52.218;5.172;2023-02-23T02:45:29;99219.78;;;7.47;100.00
65173;BME280;51758;52.218;5.172;2023-02-23T02:48:04;99216.78;;;7.50;100.00
65173;BME280;51758;52.218;5.172;2023-02-23T02:50:40;99206.63;;;7.55;100.00
65173;BME280;51758;52.218;5.172;2023-02-23T02:53:10;99210.41;;;7.46;100.00
65173;BME280;51758;52.218;5.172;2023-02-23T02:55:42;99207.59;;;7.41;100.00
65173;BME280;51758;52.218;5.172;2023-02-23T02:58:14;99212.78;;;7.41;100.00
65173;BME280;51758;52.218;5.172;2023-02-23T03:00:45;99205.78;;;7.42;100.00
65173;BME280;51758;52.218;5.172;2023-02-23T03:03:33;99206.41;;;7.50;100.00
65173;BME280;51758;52.218;5.172;2023-02-23T03:06:23;99215.56;;;7.40;100.00
65173;BME280;51758;52.218;5.172;2023-02-23T03:09:24;99209.56;;;7.26;100.00
65173;BME280;51758;52.218;5.172;2023-02-23T03:12:21;99200.78;;;7.40;100.00
65173;BME280;51758;52.218;5.172;2023-02-23T03:15:31;99195.59;;;7.40;100.00
65173;BME280;51758;52.218;5.172;2023-02-23T03:18:33;99196.59;;;7.39;100.00
65173;BME280;51758;52.218;5.172;2023-02-23T03:21:25;99195.38;;;7.35;100.00
65173;BME280;51758;52.218;5.172;2023-02-23T03:24:20;99193.59;;;7.29;100.00
65173;BME280;51758;52.218;5.172;2023-02-23T03:27:16;99192.44;;;7.45;100.00
65173;BME280;51758;52.218;5.172;2023-02-23T03:30:10;99192.78;;;7.29;100.00
65173;BME280;51758;52.218;5.172;2023-02-23T03:33:04;99189.41;;;7.35;100.00
65173;BME280;51758;52.218;5.172;2023-02-23T03:35:55;99179.63;;;7.30;100.00
65173;BME280;51758;52.218;5.172;2023-02-23T03:38:48;99168.84;;;7.33;100.00
65173;BME280;51758;52.218;5.172;2023-02-23T03:41:39;99178.66;;;7.44;100.00
65173;BME280;51758;52.218;5.172;2023-02-23T03:44:29;99150.88;;;7.32;100.00
65173;BME280;51758;52.218;5.172;2023-02-23T03:47:18;99176.81;;;7.32;100.00
65173;BME280;51758;52.218;5.172;2023-02-23T03:50:11;99181.03;;;7.39;100.00
65173;BME280;51758;52.218;5.172;2023-02-23T03:52:59;99174.63;;;7.42;100.00
65173;BME280;51758;52.218;5.172;2023-02-23T03:55:50;99190.41;;;7.40;100.00
65173;BME280;51758;52.218;5.172;2023-02-23T03:58:42;99200.19;;;7.38;100.00
65173;BME280;51758;52.218;5.172;2023-02-23T04:01:30;99186.41;;;7.31;100.00
65173;BME280;51758;52.218;5.172;2023-02-23T04:04:18;99201.00;;;7.32;100.00
65173;BME280;51758;52.218;5.172;2023-02-23T04:07:06;99194.78;;;7.27;100.00
65173;BME280;51758;52.218;5.172;2023-02-23T04:09:52;99192.41;;;7.32;100.00
65173;BME280;51758;52.218;5.172;2023-02-23T04:12:43;99193.41;;;7.31;100.00
65173;BME280;51758;52.218;5.172;2023-02-23T04:15:33;99193.59;;;7.29;100.00
65173;BME280;51758;52.218;5.172;2023-02-23T04:18:02;99195.97;;;7.17;100.00
65173;BME280;51758;52.218;5.172;2023-02-23T04:20:30;99176.56;;;7.13;100.00
65173;BME280;51758;52.218;5.172;2023-02-23T04:22:58;99191.22;;;7.34;100.00
65173;BME280;51758;52.218;5.172;2023-02-23T04:25:25;99197.00;;;7.30;100.00
65173;BME280;51758;52.218;5.172;2023-02-23T04:27:53;99197.19;;;7.35;100.00
65173;BME280;51758;52.218;5.172;2023-02-23T04:30:21;99186.59;;;7.36;100.00
65173;BME280;51758;52.218;5.172;2023-02-23T04:32:52;99188.41;;;7.36;100.00
65173;BME280;51758;52.218;5.172;2023-02-23T04:35:19;99099.84;;;6.78;100.00
65173;BME280;51758;52.218;5.172;2023-02-23T04:37:47;99185.00;;;7.35;100.00
65173;BME280;51758;52.218;5.172;2023-02-23T04:40:15;99188.44;;;7.42;100.00
65173;BME280;51758;52.218;5.172;2023-02-23T04:42:43;99191.22;;;7.34;100.00
65173;BME280;51758;52.218;5.172;2023-02-23T04:45:10;99182.25;;;7.43;100.00
65173;BME280;51758;52.218;5.172;2023-02-23T04:47:38;99189.63;;;7.46;100.00
65173;BME280;51758;52.218;5.172;2023-02-23T04:50:09;99185.81;;;7.49;100.00
65173;BME280;51758;52.218;5.172;2023-02-23T04:52:37;99196.41;;;7.47;100.00
65173;BME280;51758;52.218;5.172;2023-02-23T04:55:05;99194.81;;;7.53;100.00
65173;BME280;51758;52.218;5.172;2023-02-23T04:57:34;99194.63;;;7.54;100.00
65173;BME280;51758;52.218;5.172;2023-02-23T05:00:03;99191.44;;;7.52;100.00
65173;BME280;51758;52.218;5.172;2023-02-23T05:02:30;99188.03;;;7.52;100.00
65173;BME280;51758;52.218;5.172;2023-02-23T05:04:58;99207.00;;;7.52;100.00
65173;BME280;51758;52.218;5.172;2023-02-23T05:07:27;99203.03;;;7.57;100.00
65173;BME280;51758;52.218;5.172;2023-02-23T05:09:55;99208.03;;;7.58;100.00
65173;BME280;51758;52.218;5.172;2023-02-23T05:12:22;99217.00;;;7.62;100.00
65173;BME280;51758;52.218;5.172;2023-02-23T05:14:50;99227.59;;;7.61;100.00
65173;BME280;51758;52.218;5.172;2023-02-23T05:17:18;99226.00;;;7.60;100.00
65173;BME280;51758;52.218;5.172;2023-02-23T05:19:45;99235.19;;;7.55;100.00
65173;BME280;51758;52.218;5.172;2023-02-23T05:22:13;99234.38;;;7.55;100.00
65173;BME280;51758;52.218;5.172;2023-02-23T05:24:42;99244.38;;;7.58;100.00
65173;BME280;51758;52.218;5.172;2023-02-23T05:27:10;99260.34;;;7.62;100.00
65173;BME280;51758;52.218;5.172;2023-02-23T05:29:39;99277.75;;;7.54;100.00
65173;BME280;51758;52.218;5.172;2023-02-23T05:32:07;99279.16;;;7.57;100.00
65173;BME280;51758;52.218;5.172;2023-02-23T05:34:34;99289.53;;;7.57;100.00
65173;BME280;51758;52.218;5.172;2023-02-23T05:37:04;99302.28;;;7.52;100.00
65173;BME280;51758;52.218;5.172;2023-02-23T05:39:32;99306.31;;;7.54;100.00
65173;BME280;51758;52.218;5.172;2023-02-23T05:42:01;99310.88;;;7.52;100.00
65173;BME280;51758;52.218;5.172;2023-02-23T05:44:29;99321.47;;;7.51;100.00
65173;BME280;51758;52.218;5.172;2023-02-23T05:46:56;99327.88;;;7.55;100.00
65173;BME280;51758;52.218;5.172;2023-02-23T05:49:24;99334.88;;;7.54;100.00
65173;BME280;51758;52.218;5.172;2023-02-23T05:51:51;99329.28;;;7.58;100.00
65173;BME280;51758;52.218;5.172;2023-02-23T05:54:19;99346.25;;;7.60;100.00
65173;BME280;51758;52.218;5.172;2023-02-23T05:56:47;99357.44;;;7.54;100.00
65173;BME280;51758;52.218;5.172;2023-02-23T05:59:16;99355.28;;;7.58;100.00
65173;BME280;51758;52.218;5.172;2023-02-23T06:01:44;99374.25;;;7.58;100.00
65173;BME280;51758;52.218;5.172;2023-02-23T06:04:12;99380.25;;;7.59;100.00
65173;BME280;51758;52.218;5.172;2023-02-23T06:06:40;99383.66;;;7.59;100.00
65173;BME280;51758;52.218;5.172;2023-02-23T06:09:07;99391.00;;;7.55;100.00
65173;BME280;51758;52.218;5.172;2023-02-23T06:11:35;99400.41;;;7.57;100.00
65173;BME280;51758;52.218;5.172;2023-02-23T06:14:03;99401.78;;;7.52;100.00
65173;BME280;51758;52.218;5.172;2023-02-23T06:16:32;99408.19;;;7.57;100.00
65173;BME280;51758;52.218;5.172;2023-02-23T06:18:59;99403.38;;;7.53;100.00
65173;BME280;51758;52.218;5.172;2023-02-23T06:21:27;99421.19;;;7.57;100.00
65173;BME280;51758;52.218;5.172;2023-02-23T06:23:55;99428.19;;;7.56;100.00
65173;BME280;51758;52.218;5.172;2023-02-23T06:26:26;99440.16;;;7.57;100.00
65173;BME280;51758;52.218;5.172;2023-02-23T06:28:53;99451.38;;;7.58;100.00
65173;BME280;51758;52.218;5.172;2023-02-23T06:31:22;99455.94;;;7.55;100.00
65173;BME280;51758;52.218;5.172;2023-02-23T06:33:51;99457.31;;;7.51;100.00
65173;BME280;51758;52.218;5.172;2023-02-23T06:36:19;99471.34;;;7.57;100.00
65173;BME280;51758;52.218;5.172;2023-02-23T06:38:47;99481.09;;;7.55;100.00
65173;BME280;51758;52.218;5.172;2023-02-23T06:41:14;99478.09;;;7.51;100.00
65173;BME280;51758;52.218;5.172;2023-02-23T06:43:43;99486.50;;;7.53;100.00
65173;BME280;51758;52.218;5.172;2023-02-23T06:46:11;99494.28;;;7.53;100.00
65173;BME280;51758;52.218;5.172;2023-02-23T06:48:39;99496.50;;;7.57;100.00
65173;BME280;51758;52.218;5.172;2023-02-23T06:51:08;99505.19;;;7.42;100.00
65173;BME280;51758;52.218;5.172;2023-02-23T06:53:36;99508.59;;;7.43;100.00
65173;BME280;51758;52.218;5.172;2023-02-23T06:56:04;99502.25;;;7.52;100.00
65173;BME280;51758;52.218;5.172;2023-02-23T06:58:31;99492.25;;;7.49;100.00
65173;BME280;51758;52.218;5.172;2023-02-23T07:00:59;99499.44;;;7.47;100.00
65173;BME280;51758;52.218;5.172;2023-02-23T07:03:27;99508.88;;;7.54;100.00
65173;BME280;51758;52.218;5.172;2023-02-23T07:05:55;99512.84;;;7.50;100.00
65173;BME280;51758;52.218;5.172;2023-02-23T07:08:24;99510.47;;;7.55;100.00
65173;BME280;51758;52.218;5.172;2023-02-23T07:10:51;99508.88;;;7.54;100.00
65173;BME280;51758;52.218;5.172;2023-02-23T07:13:19;99505.91;;;7.58;100.00
65173;BME280;51758;52.218;5.172;2023-02-23T07:15:47;99529.91;;;7.60;100.00
65173;BME280;51758;52.218;5.172;2023-02-23T07:18:15;99523.91;;;7.59;100.00
65173;BME280;51758;52.218;5.172;2023-02-23T07:20:43;99516.66;;;7.54;100.00
65173;BME280;51758;52.218;5.172;2023-02-23T07:23:11;99527.69;;;7.63;100.00
65173;BME280;51758;52.218;5.172;2023-02-23T07:25:40;99537.16;;;7.71;100.00
65173;BME280;51758;52.218;5.172;2023-02-23T07:28:07;99528.56;;;7.70;100.00
65173;BME280;51758;52.218;5.172;2023-02-23T07:30:35;99529.38;;;7.71;100.00
65173;BME280;51758;52.218;5.172;2023-02-23T07:33:03;99537.97;;;7.78;100.00
65173;BME280;51758;52.218;5.172;2023-02-23T07:35:30;99552.41;;;7.80;100.00
65173;BME280;51758;52.218;5.172;2023-02-23T07:37:58;99550.16;;;7.77;100.00
65173;BME280;51758;52.218;5.172;2023-02-23T07:40:26;99558.59;;;7.79;100.00
65173;BME280;51758;52.218;5.172;2023-02-23T07:42:55;99561.00;;;7.81;100.00
65173;BME280;51758;52.218;5.172;2023-02-23T07:45:23;99571.75;;;7.78;100.00
65173;BME280;51758;52.218;5.172;2023-02-23T07:47:51;99562.16;;;7.72;100.00
65173;BME280;51758;52.218;5.172;2023-02-23T07:50:18;99574.53;;;7.76;100.00
65173;BME280;51758;52.218;5.172;2023-02-23T07:52:46;99574.41;;;7.84;100.00
65173;BME280;51758;52.218;5.172;2023-02-23T07:55:14;99578.19;;;7.82;100.00
65173;BME280;51758;52.218;5.172;2023-02-23T07:57:41;99583.22;;;7.90;100.00
65173;BME280;51758;52.218;5.172;2023-02-23T08:00:12;99554.19;;;7.80;100.00
65173;BME280;51758;52.218;5.172;2023-02-23T08:02:40;99518.53;;;7.67;100.00
65173;BME280;51758;52.218;5.172;2023-02-23T08:05:08;99559.09;;;7.96;100.00
65173;BME280;51758;52.218;5.172;2023-02-23T08:07:36;99580.78;;;8.16;100.00
65173;BME280;51758;52.218;5.172;2023-02-23T08:10:04;99597.41;;;8.22;100.00
65173;BME280;51758;52.218;5.172;2023-02-23T08:12:32;99586.22;;;8.21;100.00
65173;BME280;51758;52.218;5.172;2023-02-23T08:15:00;99584.00;;;8.25;100.00
65173;BME280;51758;52.218;5.172;2023-02-23T08:17:29;99546.72;;;8.05;100.00
65173;BME280;51758;52.218;5.172;2023-02-23T08:19:57;99595.22;;;8.25;100.00
65173;BME280;51758;52.218;5.172;2023-02-23T08:22:25;99606.31;;;8.06;100.00
65173;BME280;51758;52.218;5.172;2023-02-23T08:24:55;99602.00;;;8.20;100.00
65173;BME280;51758;52.218;5.172;2023-02-23T08:27:23;99606.94;;;8.08;100.00
65173;BME280;51758;52.218;5.172;2023-02-23T08:29:54;99612.53;;;8.12;100.00
65173;BME280;51758;52.218;5.172;2023-02-23T08:32:22;99610.72;;;8.06;100.00
65173;BME280;51758;52.218;5.172;2023-02-23T08:34:51;99612.59;;;8.18;100.00
65173;BME280;51758;52.218;5.172;2023-02-23T08:37:20;99609.81;;;8.26;100.00
65173;BME280;51758;52.218;5.172;2023-02-23T08:39:48;99614.09;;;8.34;100.00
65173;BME280;51758;52.218;5.172;2023-02-23T08:42:15;99604.53;;;8.41;100.00
65173;BME280;51758;52.218;5.172;2023-02-23T08:44:43;99614.16;;;8.47;100.00
65173;BME280;51758;52.218;5.172;2023-02-23T08:47:11;99589.09;;;8.40;100.00
65173;BME280;51758;52.218;5.172;2023-02-23T08:49:41;99614.13;;;8.41;100.00
65173;BME280;51758;52.218;5.172;2023-02-23T08:52:10;99624.16;;;8.50;100.00
65173;BME280;51758;52.218;5.172;2023-02-23T08:54:38;99630.97;;;8.51;100.00
65173;BME280;51758;52.218;5.172;2023-02-23T08:57:06;99630.56;;;8.48;100.00
65173;BME280;51758;52.218;5.172;2023-02-23T08:59:35;99628.56;;;8.50;100.00
65173;BME280;51758;52.218;5.172;2023-02-23T09:02:04;99643.03;;;8.59;100.00
65173;BME280;51758;52.218;5.172;2023-02-23T09:04:33;99640.22;;;8.60;100.00
65173;BME280;51758;52.218;5.172;2023-02-23T09:07:02;99657.22;;;8.56;100.00
65173;BME280;51758;52.218;5.172;2023-02-23T09:09:31;99668.19;;;8.52;100.00
65173;BME280;51758;52.218;5.172;2023-02-23T09:12:00;99677.22;;;8.56;100.00
65173;BME280;51758;52.218;5.172;2023-02-23T09:14:27;99672.66;;;8.65;100.00
65173;BME280;51758;52.218;5.172;2023-02-23T09:16:55;99676.06;;;8.65;100.00
65173;BME280;51758;52.218;5.172;2023-02-23T09:19:23;99681.13;;;8.73;100.00
65173;BME280;51758;52.218;5.172;2023-02-23T09:21:52;99684.31;;;8.75;100.00
65173;BME280;51758;52.218;5.172;2023-02-23T09:24:20;99683.53;;;8.81;100.00
65173;BME280;51758;52.218;5.172;2023-02-23T09:26:49;99684.16;;;8.83;100.00
65173;BME280;51758;52.218;5.172;2023-02-23T09:29:19;99681.91;;;8.74;100.00
65173;BME280;51758;52.218;5.172;2023-02-23T09:31:46;99711.38;;;8.81;100.00
65173;BME280;51758;52.218;5.172;2023-02-23T09:34:16;99682.69;;;8.68;100.00
65173;BME280;51758;52.218;5.172;2023-02-23T09:36:44;99724.38;;;8.81;100.00
65173;BME280;51758;52.218;5.172;2023-02-23T09:39:12;99728.22;;;8.91;100.00
65173;BME280;51758;52.218;5.172;2023-02-23T09:41:52;99728.47;;;8.96;100.00
65173;BME280;51758;52.218;5.172;2023-02-23T09:44:41;99723.03;;;8.91;100.00
65173;BME280;51758;52.218;5.172;2023-02-23T09:47:27;99730.44;;;8.94;100.00
65173;BME280;51758;52.218;5.172;2023-02-23T09:49:56;99708.13;;;8.72;100.00
65173;BME280;51758;52.218;5.172;2023-02-23T09:52:37;99746.88;;;9.02;100.00
65173;BME280;51758;52.218;5.172;2023-02-23T09:55:09;99740.47;;;8.97;100.00
65173;BME280;51758;52.218;5.172;2023-02-23T09:57:41;99718.69;;;8.64;100.00
65173;BME280;51758;52.218;5.172;2023-02-23T10:00:18;99762.94;;;9.05;100.00
65173;BME280;51758;52.218;5.172;2023-02-23T10:03:02;99756.16;;;9.11;100.00
65173;BME280;51758;52.218;5.172;2023-02-23T10:05:37;99759.69;;;8.96;100.00
65173;BME280;51758;52.218;5.172;2023-02-23T10:08:19;99774.69;;;8.94;100.00
65173;BME280;51758;52.218;5.172;2023-02-23T10:10:56;99788.47;;;8.88;100.00
65173;BME280;51758;52.218;5.172;2023-02-23T10:13:35;99794.38;;;9.04;100.00
65173;BME280;51758;52.218;5.172;2023-02-23T10:16:15;99751.44;;;8.86;100.00
65173;BME280;51758;52.218;5.172;2023-02-23T10:18:48;99792.84;;;9.22;100.00
65173;BME280;51758;52.218;5.172;2023-02-23T10:21:23;99810.47;;;9.20;100.00
65173;BME280;51758;52.218;5.172;2023-02-23T10:23:58;99804.50;;;9.33;100.00
65173;BME280;51758;52.218;5.172;2023-02-23T10:26:33;99824.81;;;9.03;100.00
65173;BME280;51758;52.218;5.172;2023-02-23T10:29:19;99838.91;;;8.87;100.00
65173;BME280;51758;52.218;5.172;2023-02-23T10:31:50;99770.72;;;8.64;100.00
65173;BME280;51758;52.218;5.172;2023-02-23T10:34:19;99800.72;;;8.94;100.00
65173;BME280;51758;52.218;5.172;2023-02-23T10:36:52;99858.38;;;8.91;100.00
65173;BME280;51758;52.218;5.172;2023-02-23T10:39:24;99864.19;;;8.66;100.00
65173;BME280;51758;52.218;5.172;2023-02-23T10:41:53;99872.84;;;9.01;100.00
65173;BME280;51758;52.218;5.172;2023-02-23T10:44:24;99746.94;;;8.39;100.00
65173;BME280;51758;52.218;5.172;2023-02-23T10:46:54;99897.84;;;8.67;100.00
65173;BME280;51758;52.218;5.172;2023-02-23T10:49:27;99891.03;;;8.66;100.00
65173;BME280;51758;52.218;5.172;2023-02-23T10:51:56;99866.00;;;8.65;100.00
65173;BME280;51758;52.218;5.172;2023-02-23T10:54:40;99888.72;;;8.78;100.00
65173;BME280;51758;52.218;5.172;2023-02-23T10:57:18;99887.38;;;8.88;100.00
65173;BME280;51758;52.218;5.172;2023-02-23T11:00:06;99884.88;;;9.02;100.00
65173;BME280;51758;52.218;5.172;2023-02-23T11:02:34;99890.31;;;9.07;100.00
65173;BME280;51758;52.218;5.172;2023-02-23T11:05:04;99895.47;;;9.00;100.00
65173;BME280;51758;52.218;5.172;2023-02-23T11:07:33;99899.31;;;9.04;100.00
65173;BME280;51758;52.218;5.172;2023-02-23T11:10:23;99896.09;;;9.02;100.00
65173;BME280;51758;52.218;5.172;2023-02-23T11:12:51;99911.69;;;8.95;100.00
65173;BME280;51758;52.218;5.172;2023-02-23T11:15:26;99933.16;;;9.04;100.00
65173;BME280;51758;52.218;5.172;2023-02-23T11:18:19;99940.59;;;9.07;100.00
65173;BME280;51758;52.218;5.172;2023-02-23T11:20:48;99824.22;;;8.24;100.00
65173;BME280;51758;52.218;5.172;2023-02-23T11:23:21;99941.59;;;9.06;100.00
65173;BME280;51758;52.218;5.172;2023-02-23T11:25:51;99936.81;;;9.10;100.00
65173;BME280;51758;52.218;5.172;2023-02-23T11:28:24;99940.69;;;9.20;100.00
65173;BME280;51758;52.218;5.172;2023-02-23T11:30:56;99946.69;;;9.21;100.00
65173;BME280;51758;52.218;5.172;2023-02-23T11:33:30;99934.47;;;9.21;100.00
65173;BME280;51758;52.218;5.172;2023-02-23T11:36:14;99939.78;;;9.34;100.00
65173;BME280;51758;52.218;5.172;2023-02-23T11:38:44;99941.22;;;9.44;100.00
65173;BME280;51758;52.218;5.172;2023-02-23T11:41:20;99942.03;;;9.44;100.00
65173;BME280;51758;52.218;5.172;2023-02-23T11:43:49;99946.25;;;9.52;100.00
65173;BME280;51758;52.218;5.172;2023-02-23T11:46:18;99944.25;;;9.47;100.00
65173;BME280;51758;52.218;5.172;2023-02-23T11:48:50;99933.75;;;9.34;100.00
65173;BME280;51758;52.218;5.172;2023-02-23T11:51:24;99949.53;;;9.60;100.00
65173;BME280;51758;52.218;5.172;2023-02-23T11:53:53;99944.13;;;9.27;100.00
65173;BME280;51758;52.218;5.172;2023-02-23T11:56:23;99911.44;;;9.25;100.00
65173;BME280;51758;52.218;5.172;2023-02-23T11:58:53;99971.94;;;9.55;100.00
65173;BME280;51758;52.218;5.172;2023-02-23T12:01:36;99954.06;;;9.45;100.00
65173;BME280;51758;52.218;5.172;2023-02-23T12:04:07;99995.22;;;9.63;100.00
65173;BME280;51758;52.218;5.172;2023-02-23T12:06:38;100002.78;;;9.51;100.00
65173;BME280;51758;52.218;5.172;2023-02-23T12:09:16;100041.47;;;9.48;100.00
65173;BME280;51758;52.218;5.172;2023-02-23T12:11:49;100054.63;;;9.40;100.00
65173;BME280;51758;52.218;5.172;2023-02-23T12:14:26;100064.47;;;9.44;100.00
65173;BME280;51758;52.218;5.172;2023-02-23T12:16:59;100075.28;;;9.41;100.00
65173;BME280;51758;52.218;5.172;2023-02-23T12:19:32;100078.25;;;9.38;100.00
65173;BME280;51758;52.218;5.172;2023-02-23T12:22:06;100115.13;;;9.35;100.00
65173;BME280;51758;52.218;5.172;2023-02-23T12:24:41;100098.34;;;9.44;100.00
65173;BME280;51758;52.218;5.172;2023-02-23T12:27:14;100102.94;;;9.42;100.00
65173;BME280;51758;52.218;5.172;2023-02-23T12:29:57;100093.75;;;9.46;100.00
65173;BME280;51758;52.218;5.172;2023-02-23T12:32:36;100077.13;;;9.47;100.00
65173;BME280;51758;52.218;5.172;2023-02-23T12:35:11;100079.13;;;9.45;100.00
65173;BME280;51758;52.218;5.172;2023-02-23T12:37:42;100100.06;;;9.58;100.00
65173;BME280;51758;52.218;5.172;2023-02-23T12:40:14;100115.25;;;9.55;100.00
65173;BME280;51758;52.218;5.172;2023-02-23T12:42:48;100131.78;;;9.62;100.00
65173;BME280;51758;52.218;5.172;2023-02-23T12:45:25;100109.25;;;9.82;100.00
65173;BME280;51758;52.218;5.172;2023-02-23T12:48:13;100103.25;;;9.88;100.00
65173;BME280;51758;52.218;5.172;2023-02-23T12:50:49;100112.13;;;9.94;100.00
65173;BME280;51758;52.218;5.172;2023-02-23T12:53:21;100116.16;;;9.96;100.00
65173;BME280;51758;52.218;5.172;2023-02-23T12:56:00;100117.59;;;9.99;100.00
65173;BME280;51758;52.218;5.172;2023-02-23T12:58:38;100149.41;;;9.88;100.00
65173;BME280;51758;52.218;5.172;2023-02-23T13:01:09;100119.63;;;9.76;100.00
65173;BME280;51758;52.218;5.172;2023-02-23T13:03:51;100120.88;;;9.80;100.00
65173;BME280;51758;52.218;5.172;2023-02-23T13:06:26;100124.94;;;9.89;100.00
65173;BME280;51758;52.218;5.172;2023-02-23T13:09:02;100131.00;;;9.96;100.00
65173;BME280;51758;52.218;5.172;2023-02-23T13:11:48;100116.72;;;9.92;100.00
65173;BME280;51758;52.218;5.172;2023-02-23T13:14:25;100122.41;;;10.02;100.00
65173;BME280;51758;52.218;5.172;2023-02-23T13:17:00;100118.59;;;9.98;100.00
65173;BME280;51758;52.218;5.172;2023-02-23T13:19:34;99984.53;;;9.17;100.00
65173;BME280;51758;52.218;5.172;2023-02-23T13:22:15;100120.75;;;9.94;100.00
65173;BME280;51758;52.218;5.172;2023-02-23T13:24:50;100126.59;;;9.96;100.00
65173;BME280;51758;52.218;5.172;2023-02-23T13:27:24;100133.00;;;9.94;100.00
65173;BME280;51758;52.218;5.172;2023-02-23T13:29:54;100132.53;;;9.84;100.00
65173;BME280;51758;52.218;5.172;2023-02-23T13:32:26;100123.84;;;9.77;100.00
65173;BME280;51758;52.218;5.172;2023-02-23T13:35:00;100136.75;;;9.85;100.00
65173;BME280;51758;52.218;5.172;2023-02-23T13:37:30;100132.38;;;9.92;100.00